createdAt,value
2022-11-25T00:11:04.780Z,1016.81
2022-11-25T00:39:54.889Z,1016.86
2022-11-25T01:08:43.482Z,1017.03
2022-11-25T01:37:33.035Z,1016.96
2022-11-25T02:06:19.628Z,1016.92
2022-11-25T02:35:05.213Z,1016.69
2022-11-25T03:03:51.837Z,1016.71
2022-11-25T03:32:39.106Z,1016.54
2022-11-25T04:01:28.623Z,1016.6
2022-11-25T04:30:12.895Z,1016.28
2022-11-25T04:58:56.097Z,1016.63
2022-11-25T05:27:38.176Z,1017.18
2022-11-25T05:56:30.399Z,1017.3
2022-11-25T06:25:07.606Z,1017.48
2022-11-25T06:53:59.440Z,1017.69
2022-11-25T07:22:36.657Z,1018.12
2022-11-25T07:51:15.346Z,1018.63
2022-11-25T08:19:57.909Z,1018.58
2022-11-25T08:48:42.005Z,1018.55
2022-11-25T09:17:24.919Z,1018.92
2022-11-25T09:46:09.385Z,1019.3
2022-11-25T10:14:40.274Z,1019.44
2022-11-25T10:43:33.701Z,1019.62
2022-11-25T11:11:51.702Z,1019.71
2022-11-25T11:40:28.366Z,1019.92
2022-11-25T12:08:56.735Z,1020.3
2022-11-25T12:37:36.699Z,1020.53
2022-11-25T13:05:55.895Z,1021
2022-11-25T13:34:31.837Z,1021.22
2022-11-25T14:03:16.174Z,1021.27
2022-11-25T14:31:47.756Z,1021.82
2022-11-25T15:00:26.257Z,1022.13
2022-11-25T15:29:00.304Z,1022.54
2022-11-25T15:57:44.915Z,1022.74
2022-11-25T16:26:20.544Z,1023.08
2022-11-25T16:54:59.885Z,1023.56
2022-11-25T17:23:40.669Z,1023.96
2022-11-25T17:52:18.004Z,1024.4
2022-11-25T18:21:12.668Z,1024.95
2022-11-25T18:50:07.654Z,1025.31
2022-11-25T19:19:04.377Z,1025.73
2022-11-25T19:47:54.068Z,1026.36
2022-11-25T20:16:36.010Z,1026.86
2022-11-25T20:45:18.990Z,1026.96
2022-11-25T21:13:59.866Z,1027.25
2022-11-25T21:42:36.210Z,1027.57
2022-11-25T22:11:20.412Z,1027.82
2022-11-25T22:40:04.220Z,1027.96
2022-11-25T23:08:50.498Z,1028.23
2022-11-25T23:37:32.264Z,1028.36
